Terminal Aerodrome Forecast
Issued by NWS Blacksburg, VA

Home | Current Version | Previous Version | Text Only | Print | Product List | Glossary On
Versions: 1 2 3 4 5 6 7 8 9 10 11 12 13 14 15 16 17 18 19 20 21 22 23 24 25 26 27 28 29 30 31 32
000
FTUS41 KRNK 031829 AAA
TAFDAN
TAF AMD
KDAN 031829Z 0318/0418 27007KT P6SM VCTS SCT025CB OVC100
      TEMPO 0318/0321 5SM -TSRA OVC025CB
     FM032100 29007KT P6SM VCSH BKN070
     FM040000 26008KT 5SM -SHRA SCT010 BKN035
     FM040300 31004KT 5SM BR OVC050
     FM041200 30008KT P6SM BKN050=

USA.gov is the U.S. government's official web portal to all federal, state and local government web resources and services.